Aeroporto :
LOGIN :

Iscrizione | Disclaimer

   EN    FR    IT 

 










Sommario :    VFR   VFR Marginale   IFR   IFR Intensivo   IFR Molto Intensivo
Visibilità : 
Base nubi : 
>= 8 km
>= 3000ft
5 / 8 km
1000 / 3000 ft
1500m / 5 km
500 / 1000 ft
800 / 1500m
200 / 500 ft
< 800m
< 200 ft
Simboli :   Temporali  Nebbia  Neve Forte  Precipitazioni Forti  Vento > 20 kt
SIGMETs :   Varie  Temporali  Ghiacco  Turbolenza  Onda orograficha  Ceneri Vulcaniche






- Altitudine del aeroporto : 289 ft


LFYR - Romorantin Pruniers

ULTIMO METAR :
  • 012130Z AUTO 00000KT CAVOK M00/M04 Q1016

METARs OBSOLETI :
  • 012100Z AUTO 00000KT CAVOK 01/M03 Q1016
  • 012030Z AUTO 00000KT CAVOK 02/M03 Q1016
  • 012000Z AUTO 00000KT CAVOK 03/M04 Q1016
  • 011930Z AUTO VRB01KT CAVOK 05/M04 Q1016
  • 011900Z AUTO VRB02KT CAVOK 09/M06 Q1016
  • 011830Z AUTO 03004KT 360V070 CAVOK 11/M06 Q1016

Previsioni scadute.



MetMap, La meteo Aeronautica in un colpo d'occhio ! - Copyright ORBIFLY Dicembre 2007 - Disclaimer

ORBIFLY MET'MAP TEAM :

Programmazione e sviluppo : Alexandra Zaïnal
Concezione : Baudouin d'Aumeries
Aiuto per la programmazione : Marc-Olivier Méhu
Supporto tecnico e logistico : Manuel Goepfert
Aiuto per la traduzione : Arnaldo La Scala

Contatto : metmap@orbifly.com




FONTI E CREDITI :

   NOAA